createdAt,value
2023-04-26T00:01:30.301Z,7.4
2023-04-26T00:11:36.323Z,7.3
2023-04-26T00:31:48.473Z,7.3
2023-04-26T00:41:54.461Z,7.3
2023-04-26T00:52:00.599Z,7.3
2023-04-26T01:02:06.605Z,7.3
2023-04-26T01:12:12.597Z,7.3
2023-04-26T01:22:18.656Z,7.3
2023-04-26T01:32:24.716Z,7.3
2023-04-26T01:42:30.721Z,7.3
2023-04-26T01:52:36.785Z,7.3
2023-04-26T02:02:42.919Z,7.3
2023-04-26T02:12:48.848Z,7.2
2023-04-26T02:22:54.918Z,7.2
2023-04-26T02:33:01.032Z,7.2
2023-04-26T02:43:06.995Z,7.2
2023-04-26T02:53:13.037Z,7.2
2023-04-26T03:03:19.226Z,7.2
2023-04-26T03:13:25.122Z,7.2
2023-04-26T03:23:31.164Z,7.2
2023-04-26T03:33:37.216Z,7.1
2023-04-26T03:43:43.251Z,7.2
2023-04-26T03:53:49.305Z,7.2
2023-04-26T04:03:55.752Z,7.2
2023-04-26T04:14:01.442Z,7.1
2023-04-26T04:24:07.420Z,7.2
2023-04-26T04:34:13.464Z,7.2
2023-04-26T04:44:19.516Z,7.2
2023-04-26T04:54:25.543Z,7.2
2023-04-26T05:04:31.708Z,7.2
2023-04-26T05:14:37.946Z,7.1
2023-04-26T05:24:43.672Z,7.1
2023-04-26T05:34:49.729Z,7.1
2023-04-26T05:44:55.744Z,7.1
2023-04-26T05:55:01.797Z,6.9
2023-04-26T06:05:08.116Z,6.9
2023-04-26T06:15:13.905Z,6.9
2023-04-26T06:25:19.974Z,6.9
2023-04-26T06:35:25.957Z,7
2023-04-26T06:45:32.019Z,7.1
2023-04-26T06:55:38.084Z,7.1
2023-04-26T07:05:44.152Z,7.1
2023-04-26T07:15:50.207Z,7.1
2023-04-26T07:25:57.633Z,7.3
2023-04-26T07:36:02.245Z,7.3
2023-04-26T07:46:08.344Z,7.3
2023-04-26T07:56:14.349Z,7.4
2023-04-26T08:06:20.499Z,7.4
2023-04-26T08:16:26.429Z,7.4
2023-04-26T08:26:32.483Z,7.4
2023-04-26T08:36:38.488Z,7.6
2023-04-26T08:46:44.635Z,7.6
2023-04-26T08:56:50.580Z,7.6
2023-04-26T09:06:56.603Z,7.5
2023-04-26T09:17:02.665Z,7.6
2023-04-26T09:27:08.716Z,7.7
2023-04-26T09:37:14.736Z,7.7
2023-04-26T09:47:20.774Z,7.7
2023-04-26T09:57:26.815Z,7.6
2023-04-26T10:17:38.937Z,7.7
2023-04-26T10:27:44.945Z,7.7
2023-04-26T10:37:50.999Z,7.7
2023-04-26T10:47:57.071Z,7.7
2023-04-26T10:58:03.077Z,7.7
2023-04-26T11:08:09.174Z,7.6
2023-04-26T11:18:15.169Z,7.6
2023-04-26T11:28:21.209Z,7.6
2023-04-26T11:38:27.261Z,7.6
2023-04-26T11:48:33.312Z,7.6
2023-04-26T11:58:39.368Z,7.7
2023-04-26T12:08:45.393Z,7.7
2023-04-26T12:18:51.444Z,7.7
2023-04-26T12:28:57.477Z,7.7
2023-04-26T12:39:03.518Z,7.7
2023-04-26T12:49:09.557Z,7.7
2023-04-26T12:59:15.693Z,7.8
2023-04-26T13:09:21.634Z,7.8
2023-04-26T13:19:27.691Z,7.8
2023-04-26T13:29:33.725Z,7.8
2023-04-26T13:39:39.780Z,7.8
2023-04-26T13:49:45.834Z,7.8
2023-04-26T13:59:51.840Z,7.8
2023-04-26T14:09:57.911Z,7.8
2023-04-26T14:20:03.959Z,7.8
2023-04-26T14:30:09.970Z,7.8
2023-04-26T14:40:16.050Z,7.8
2023-04-26T14:50:22.095Z,7.8
2023-04-26T15:00:28.124Z,7.8
2023-04-26T15:10:34.170Z,7.8
2023-04-26T15:20:40.218Z,7.8
2023-04-26T15:30:46.242Z,7.8
2023-04-26T15:40:52.292Z,7.8
2023-04-26T16:01:04.429Z,7.8
2023-04-26T16:11:10.408Z,7.8
2023-04-26T16:21:16.470Z,7.9
2023-04-26T16:31:22.497Z,7.9
2023-04-26T16:41:28.538Z,7.9
2023-04-26T17:01:40.683Z,7.8
2023-04-26T17:11:46.672Z,7.7
2023-04-26T17:21:52.708Z,7.7
2023-04-26T17:31:58.724Z,7.7
2023-04-26T17:42:04.792Z,7.7
2023-04-26T17:52:10.850Z,7.7
2023-04-26T18:02:16.992Z,7.7
2023-04-26T18:12:22.904Z,7.7
2023-04-26T18:22:28.950Z,7.7
2023-04-26T18:32:35.040Z,7.7
2023-04-26T18:42:41.044Z,7.7
2023-04-26T18:52:47.109Z,7.7
2023-04-26T19:02:53.243Z,7.6
2023-04-26T19:12:59.170Z,7.7
2023-04-26T19:23:05.244Z,7.6
2023-04-26T19:33:11.250Z,7.6
2023-04-26T19:43:17.313Z,7.6
2023-04-26T19:53:23.344Z,7.6
2023-04-26T20:03:29.609Z,7.5
2023-04-26T20:13:35.452Z,7.5
2023-04-26T20:23:41.469Z,7.5
2023-04-26T20:33:47.530Z,7.5
2023-04-26T20:43:53.573Z,7.5
2023-04-26T20:53:59.594Z,7.5
2023-04-26T21:04:05.763Z,7.5
2023-04-26T21:14:11.678Z,7.5
2023-04-26T21:24:17.751Z,7.5
2023-04-26T21:34:23.782Z,7.5
2023-04-26T21:44:29.797Z,7.5
2023-04-26T21:54:35.855Z,7.4
2023-04-26T22:04:41.913Z,7.4
2023-04-26T22:14:47.938Z,7.4
2023-04-26T22:24:54.482Z,7.4
2023-04-26T22:35:00.025Z,7.4
2023-04-26T22:45:06.073Z,7.4
2023-04-26T22:55:12.112Z,7.4
2023-04-26T23:05:18.186Z,7.4
2023-04-26T23:15:24.201Z,7.4
2023-04-26T23:25:30.226Z,7.4
2023-04-26T23:35:36.281Z,7.3
2023-04-26T23:45:42.355Z,7.3
2023-04-26T23:55:48.393Z,7.3
